createdAt,value
2023-04-21T00:00:59.980Z,8.70
2023-04-21T00:03:28.067Z,8.70
2023-04-21T00:06:00.476Z,8.70
2023-04-21T00:08:27.600Z,8.80
2023-04-21T00:10:54.216Z,8.80
2023-04-21T00:13:20.836Z,8.80
2023-04-21T00:15:47.474Z,8.70
2023-04-21T00:18:14.171Z,8.70
2023-04-21T00:20:41.484Z,8.80
2023-04-21T00:23:10.812Z,8.80
2023-04-21T00:25:37.441Z,8.80
2023-04-21T00:28:04.153Z,8.80
2023-04-21T00:30:30.765Z,8.80
2023-04-21T00:32:57.425Z,8.70
2023-04-21T00:35:24.020Z,8.80
2023-04-21T00:37:50.883Z,8.70
2023-04-21T00:40:17.509Z,8.70
2023-04-21T00:42:44.140Z,8.70
2023-04-21T00:45:11.149Z,8.70
2023-04-21T00:47:37.813Z,8.70
2023-04-21T00:50:04.870Z,8.70
2023-04-21T00:52:31.511Z,8.70
2023-04-21T00:54:58.116Z,8.70
2023-04-21T00:57:24.852Z,8.70
2023-04-21T00:59:51.986Z,8.70
2023-04-21T01:02:18.812Z,8.70
2023-04-21T01:04:45.764Z,8.80
2023-04-21T01:07:12.567Z,8.80
2023-04-21T01:09:39.193Z,8.90
2023-04-21T01:12:07.622Z,8.90
2023-04-21T01:14:34.882Z,8.90
2023-04-21T01:17:01.581Z,9.00
2023-04-21T01:19:30.187Z,9.00
2023-04-21T01:21:58.430Z,9.00
2023-04-21T01:24:25.296Z,9.00
2023-04-21T01:26:51.885Z,9.00
2023-04-21T01:29:18.597Z,9.00
2023-04-21T01:31:47.594Z,9.10
2023-04-21T01:34:14.327Z,9.10
2023-04-21T01:36:40.948Z,9.20
2023-04-21T01:39:07.566Z,9.20
2023-04-21T01:41:34.169Z,9.20
2023-04-21T01:44:01.102Z,9.30
2023-04-21T01:46:27.949Z,9.30
2023-04-21T01:48:54.679Z,9.40
2023-04-21T01:51:21.278Z,9.40
2023-04-21T01:53:47.884Z,9.50
2023-04-21T01:56:15.329Z,9.40
2023-04-21T01:58:41.964Z,9.40
2023-04-21T02:01:08.598Z,9.40
2023-04-21T02:03:35.829Z,9.30
2023-04-21T02:06:02.573Z,9.20
2023-04-21T02:08:29.290Z,9.20
2023-04-21T02:10:55.901Z,9.20
2023-04-21T02:13:22.524Z,9.20
2023-04-21T02:15:50.354Z,9.20
2023-04-21T02:18:20.130Z,9.10
2023-04-21T02:20:46.735Z,9.20
2023-04-21T02:23:13.362Z,9.20
2023-04-21T02:25:40.029Z,9.20
2023-04-21T02:28:06.691Z,9.20
2023-04-21T02:30:34.165Z,9.30
2023-04-21T02:33:00.887Z,9.30
2023-04-21T02:35:27.570Z,9.30
2023-04-21T02:37:54.192Z,9.30
2023-04-21T02:40:21.162Z,9.40
2023-04-21T02:42:47.777Z,9.40
2023-04-21T02:45:14.395Z,9.40
2023-04-21T02:47:41.031Z,9.40
2023-04-21T02:50:07.898Z,9.40
2023-04-21T02:52:38.089Z,9.40
2023-04-21T02:55:04.986Z,9.40
2023-04-21T02:57:31.769Z,9.30
2023-04-21T02:59:58.370Z,9.30
2023-04-21T03:02:25.098Z,9.30
2023-04-21T03:04:51.870Z,9.20
2023-04-21T03:07:18.504Z,9.30
2023-04-21T03:09:45.327Z,9.30
2023-04-21T03:12:11.924Z,9.30
2023-04-21T03:14:38.561Z,9.30
2023-04-21T03:17:05.163Z,9.30
2023-04-21T03:19:31.842Z,9.30
2023-04-21T03:21:58.447Z,9.30
2023-04-21T03:24:25.111Z,9.30
2023-04-21T03:26:51.832Z,9.30
2023-04-21T03:29:18.693Z,9.30
2023-04-21T03:31:45.542Z,9.30
2023-04-21T03:34:12.188Z,9.30
2023-04-21T03:36:38.801Z,9.30
2023-04-21T03:39:20.624Z,9.30
2023-04-21T03:41:47.986Z,9.40
2023-04-21T03:44:14.596Z,9.40
2023-04-21T03:46:41.224Z,9.40
2023-04-21T03:49:08.101Z,9.50
2023-04-21T03:51:34.702Z,9.50
2023-04-21T03:54:01.320Z,9.50
2023-04-21T03:56:27.919Z,9.50
2023-04-21T03:58:54.543Z,9.50
2023-04-21T04:01:21.934Z,9.50
2023-04-21T04:03:48.810Z,9.50
2023-04-21T04:06:15.781Z,9.50
2023-04-21T04:08:42.397Z,9.50
2023-04-21T04:11:08.996Z,9.50
2023-04-21T04:13:35.793Z,9.50
2023-04-21T04:16:02.642Z,9.50
2023-04-21T04:18:29.335Z,9.60
2023-04-21T04:20:56.017Z,9.50
2023-04-21T04:23:22.632Z,9.40
2023-04-21T04:25:49.297Z,9.40
2023-04-21T04:28:16.068Z,9.40
2023-04-21T04:30:43.753Z,9.50
2023-04-21T04:33:11.684Z,9.60
2023-04-21T04:35:38.324Z,9.70
2023-04-21T04:38:05.057Z,9.90
2023-04-21T04:40:33.231Z,10.00
2023-04-21T04:43:01.287Z,10.10
2023-04-21T04:45:28.614Z,10.20
2023-04-21T04:47:55.421Z,10.30
2023-04-21T04:50:22.841Z,10.30
2023-04-21T04:52:49.722Z,10.30
2023-04-21T04:55:16.361Z,10.40
2023-04-21T04:57:42.994Z,10.40
2023-04-21T05:00:11.448Z,10.40
2023-04-21T05:02:38.902Z,10.50
2023-04-21T05:05:06.998Z,10.50
2023-04-21T05:07:36.742Z,10.50
2023-04-21T05:10:04.528Z,10.70
2023-04-21T05:12:32.279Z,11.20
2023-04-21T05:14:58.887Z,12.00
2023-04-21T05:17:25.959Z,12.10
2023-04-21T05:19:52.621Z,12.10
2023-04-21T05:22:19.215Z,12.00
2023-04-21T05:24:45.858Z,12.30
2023-04-21T05:27:12.470Z,13.40
2023-04-21T05:29:39.086Z,14.80
2023-04-21T05:32:05.974Z,16.20
2023-04-21T05:34:32.741Z,17.50
2023-04-21T05:36:59.363Z,18.20
2023-04-21T05:39:27.890Z,19.10
2023-04-21T05:41:54.522Z,19.30
2023-04-21T05:44:21.411Z,19.30
2023-04-21T05:46:48.376Z,19.40
2023-04-21T05:49:15.006Z,19.80
2023-04-21T05:51:41.684Z,19.40
2023-04-21T05:54:08.305Z,19.70
2023-04-21T05:56:34.928Z,19.30
2023-04-21T05:59:01.523Z,19.00
2023-04-21T06:01:28.120Z,17.30
2023-04-21T06:03:55.511Z,17.10
2023-04-21T06:06:22.188Z,16.60
2023-04-21T06:08:48.805Z,17.60
2023-04-21T06:11:21.050Z,17.50
2023-04-21T06:13:47.828Z,17.70
2023-04-21T06:16:14.476Z,18.00
2023-04-21T06:18:43.386Z,17.70
2023-04-21T06:21:11.013Z,17.80
2023-04-21T06:23:37.638Z,17.90
2023-04-21T06:26:05.478Z,18.30
2023-04-21T06:28:33.394Z,18.30
2023-04-21T06:31:03.822Z,18.90
2023-04-21T06:33:31.523Z,19.60
2023-04-21T06:35:58.168Z,19.70
2023-04-21T06:38:24.869Z,18.30
2023-04-21T06:40:51.769Z,16.80
2023-04-21T06:43:18.469Z,15.70
2023-04-21T06:45:45.379Z,15.10
2023-04-21T06:48:12.085Z,14.60
2023-04-21T06:50:38.742Z,15.00
2023-04-21T06:53:05.537Z,16.30
2023-04-21T06:55:32.381Z,17.50
2023-04-21T06:57:59.035Z,18.20
2023-04-21T07:00:25.714Z,17.30
2023-04-21T07:02:52.626Z,16.50
2023-04-21T07:05:19.457Z,15.90
2023-04-21T07:07:46.082Z,15.20
2023-04-21T07:10:12.868Z,15.10
2023-04-21T07:12:39.482Z,15.00
2023-04-21T07:15:06.777Z,15.10
2023-04-21T07:17:33.550Z,15.30
2023-04-21T07:20:00.217Z,16.10
2023-04-21T07:22:26.856Z,16.30
2023-04-21T07:24:53.468Z,16.30
2023-04-21T07:27:20.184Z,16.20
2023-04-21T07:29:46.802Z,16.40
2023-04-21T07:32:13.414Z,16.30
2023-04-21T07:34:40.184Z,15.90
2023-04-21T07:37:06.790Z,15.50
2023-04-21T07:39:33.412Z,14.90
2023-04-21T07:42:00.164Z,14.70
2023-04-21T07:44:29.105Z,14.50
2023-04-21T07:46:55.719Z,14.50
2023-04-21T07:49:22.631Z,15.40
2023-04-21T07:51:49.646Z,16.70
2023-04-21T07:54:16.260Z,16.90
2023-04-21T07:56:43.187Z,17.00
2023-04-21T07:59:09.868Z,17.60
2023-04-21T08:01:36.510Z,18.50
2023-04-21T08:04:03.278Z,19.00
2023-04-21T08:06:30.037Z,19.80
2023-04-21T08:08:56.704Z,20.00
2023-04-21T08:11:23.433Z,19.80
2023-04-21T08:13:50.606Z,19.90
2023-04-21T08:16:17.332Z,19.00
2023-04-21T08:18:44.126Z,19.60
2023-04-21T08:21:10.737Z,20.20
2023-04-21T08:23:37.429Z,19.90
2023-04-21T08:26:04.075Z,20.10
2023-04-21T08:28:30.702Z,20.30
2023-04-21T08:30:57.398Z,19.90
2023-04-21T08:33:24.099Z,19.60
2023-04-21T08:36:02.498Z,18.40
2023-04-21T08:38:32.442Z,18.00
2023-04-21T08:40:59.679Z,18.00
2023-04-21T08:43:26.587Z,17.60
2023-04-21T08:45:54.330Z,17.30
2023-04-21T08:48:22.970Z,17.50
2023-04-21T08:50:50.796Z,17.20
2023-04-21T08:53:17.700Z,17.20
2023-04-21T08:55:44.309Z,17.00
2023-04-21T08:58:10.983Z,16.90
2023-04-21T09:00:38.098Z,17.10
2023-04-21T09:03:16.145Z,17.30
2023-04-21T09:06:01.256Z,17.60
2023-04-21T09:08:29.791Z,17.50
2023-04-21T09:10:56.644Z,16.90
2023-04-21T09:13:30.001Z,17.00
2023-04-21T09:15:56.953Z,16.60
2023-04-21T09:18:24.929Z,17.10
2023-04-21T09:21:12.526Z,16.90
2023-04-21T09:23:43.377Z,16.80
2023-04-21T09:26:10.504Z,17.10
2023-04-21T09:28:37.165Z,17.30
2023-04-21T09:31:03.892Z,17.80
2023-04-21T09:33:45.757Z,18.00
2023-04-21T09:36:24.693Z,18.00
2023-04-21T09:39:25.245Z,17.70
2023-04-21T09:41:46.532Z,17.50
2023-04-21T09:44:13.217Z,17.60
2023-04-21T09:46:40.036Z,17.70
2023-04-21T09:49:07.022Z,17.80
2023-04-21T09:54:21.974Z,17.70
2023-04-21T09:56:59.224Z,17.80
2023-04-21T09:59:27.610Z,17.70
2023-04-21T10:01:54.349Z,17.70
2023-04-21T10:04:23.086Z,17.80
2023-04-21T10:06:50.533Z,17.90
2023-04-21T10:09:18.416Z,17.80
2023-04-21T10:11:45.048Z,17.80
2023-04-21T10:14:11.683Z,17.60
2023-04-21T10:16:38.511Z,17.70
2023-04-21T10:19:24.319Z,17.60
2023-04-21T10:21:50.972Z,17.30
2023-04-21T10:24:17.954Z,17.60
2023-04-21T10:26:44.824Z,17.60
2023-04-21T10:29:16.297Z,17.90
2023-04-21T10:31:55.334Z,18.10
2023-04-21T10:34:25.428Z,18.50
2023-04-21T10:36:55.144Z,18.80
2023-04-21T10:39:29.556Z,19.00
2023-04-21T10:42:17.034Z,18.70
2023-04-21T10:44:44.263Z,18.90
2023-04-21T10:47:11.313Z,18.70
2023-04-21T10:49:38.812Z,18.60
2023-04-21T10:52:06.941Z,18.90
2023-04-21T10:54:45.902Z,18.90
2023-04-21T10:57:19.812Z,18.60
2023-04-21T10:59:47.503Z,18.70
2023-04-21T11:02:15.284Z,18.50
2023-04-21T11:04:45.116Z,18.60
2023-04-21T11:07:23.096Z,18.70
2023-04-21T11:09:57.284Z,18.60
2023-04-21T11:12:26.797Z,18.90
2023-04-21T11:14:53.436Z,19.40
2023-04-21T11:17:20.724Z,19.40
2023-04-21T11:19:48.274Z,19.80
2023-04-21T11:22:17.141Z,19.80
2023-04-21T11:24:47.690Z,19.70
2023-04-21T11:27:15.278Z,19.10
2023-04-21T11:29:42.218Z,18.70
2023-04-21T11:32:08.958Z,18.60
2023-04-21T11:34:39.221Z,18.50
2023-04-21T11:37:07.832Z,18.70
2023-04-21T11:39:34.477Z,19.00
2023-04-21T11:42:02.277Z,19.30
2023-04-21T11:44:42.236Z,19.50
2023-04-21T11:47:25.455Z,19.30
2023-04-21T11:49:56.748Z,18.60
2023-04-21T11:52:27.747Z,18.50
2023-04-21T11:55:01.800Z,18.50
2023-04-21T11:57:29.230Z,18.60
2023-04-21T11:59:58.906Z,18.80
2023-04-21T12:02:27.245Z,19.30
2023-04-21T12:05:05.216Z,19.60
2023-04-21T12:07:36.604Z,19.40
2023-04-21T12:10:10.193Z,19.60
2023-04-21T12:12:40.532Z,19.40
2023-04-21T12:15:08.351Z,19.10
2023-04-21T12:17:45.231Z,19.30
2023-04-21T12:20:12.634Z,19.70
2023-04-21T12:22:39.256Z,19.90
2023-04-21T12:25:06.254Z,20.20
2023-04-21T12:27:32.974Z,20.00
2023-04-21T12:29:59.623Z,20.10
2023-04-21T12:32:26.644Z,20.20
2023-04-21T12:34:53.285Z,19.50
2023-04-21T12:37:19.915Z,18.90
2023-04-21T12:39:46.535Z,18.60
2023-04-21T12:42:13.145Z,18.70
2023-04-21T12:44:40.461Z,19.20
2023-04-21T12:47:07.175Z,19.60
2023-04-21T12:49:33.785Z,19.70
2023-04-21T12:52:00.396Z,19.60
2023-04-21T12:54:26.996Z,19.70
2023-04-21T12:56:53.894Z,20.00
2023-04-21T12:59:20.563Z,20.00
2023-04-21T13:01:47.196Z,19.80
2023-04-21T13:04:14.043Z,19.40
2023-04-21T13:06:40.907Z,19.10
2023-04-21T13:09:07.529Z,18.60
2023-04-21T13:11:34.217Z,18.40
2023-04-21T13:14:00.978Z,18.30
2023-04-21T13:16:29.550Z,18.30
2023-04-21T13:18:56.975Z,18.40
2023-04-21T13:21:23.586Z,18.60
2023-04-21T13:23:50.235Z,18.90
2023-04-21T13:26:17.282Z,19.30
2023-04-21T13:28:43.942Z,19.60
2023-04-21T13:31:10.582Z,19.40
2023-04-21T13:33:37.250Z,19.10
2023-04-21T13:36:04.201Z,19.00
2023-04-21T13:38:30.983Z,19.10
2023-04-21T13:40:57.704Z,19.30
2023-04-21T13:43:24.424Z,19.50
2023-04-21T13:45:52.162Z,19.80
2023-04-21T13:48:21.057Z,20.10
2023-04-21T13:50:47.692Z,20.30
2023-04-21T13:53:16.406Z,20.20
2023-04-21T13:55:44.170Z,20.50
2023-04-21T13:58:11.330Z,20.10
2023-04-21T14:00:38.608Z,20.00
2023-04-21T14:03:06.603Z,19.80
2023-04-21T14:05:33.629Z,20.00
2023-04-21T14:08:00.509Z,20.20
2023-04-21T14:10:27.301Z,20.30
2023-04-21T14:12:54.366Z,20.40
2023-04-21T14:15:21.068Z,20.20
2023-04-21T14:17:47.713Z,19.80
2023-04-21T14:20:14.393Z,19.80
2023-04-21T14:22:41.026Z,19.90
2023-04-21T14:25:08.074Z,20.00
2023-04-21T14:27:34.750Z,20.10
2023-04-21T14:30:01.559Z,20.00
2023-04-21T14:32:28.351Z,20.00
2023-04-21T14:34:58.038Z,19.90
2023-04-21T14:37:25.471Z,19.70
2023-04-21T14:39:52.171Z,19.40
2023-04-21T14:42:18.965Z,19.10
2023-04-21T14:44:45.743Z,19.10
2023-04-21T14:47:12.515Z,19.10
2023-04-21T14:49:39.186Z,19.50
2023-04-21T14:52:06.817Z,19.80
2023-04-21T14:54:33.463Z,20.00
2023-04-21T14:57:17.783Z,20.00
2023-04-21T14:59:46.677Z,20.00
2023-04-21T15:02:13.847Z,19.80
2023-04-21T15:04:41.080Z,19.70
2023-04-21T15:07:07.810Z,19.90
2023-04-21T15:09:35.948Z,20.10
2023-04-21T15:12:02.918Z,20.00
2023-04-21T15:14:29.755Z,20.20
2023-04-21T15:16:56.514Z,20.10
2023-04-21T15:19:25.408Z,20.00
2023-04-21T15:21:52.358Z,19.90
2023-04-21T15:24:19.059Z,19.90
2023-04-21T15:26:45.895Z,19.80
2023-04-21T15:29:12.525Z,19.70
2023-04-21T15:31:39.706Z,19.60
2023-04-21T15:34:06.407Z,19.50
2023-04-21T15:36:33.081Z,19.30
2023-04-21T15:38:59.755Z,19.40
2023-04-21T15:41:29.181Z,19.40
2023-04-21T15:43:56.041Z,19.40
2023-04-21T15:46:22.815Z,19.30
2023-04-21T15:48:49.468Z,19.40
2023-04-21T15:51:16.250Z,19.30
2023-04-21T15:53:47.618Z,19.30
2023-04-21T15:56:17.516Z,19.30
2023-04-21T15:58:44.250Z,19.30
2023-04-21T16:01:11.067Z,19.30
2023-04-21T16:03:38.036Z,19.30
2023-04-21T16:06:05.120Z,19.40
2023-04-21T16:08:33.236Z,19.40
2023-04-21T16:11:00.435Z,19.30
2023-04-21T16:13:27.154Z,19.30
2023-04-21T16:15:53.858Z,19.20
2023-04-21T16:18:20.880Z,19.20
2023-04-21T16:20:47.619Z,19.10
2023-04-21T16:23:14.909Z,19.10
2023-04-21T16:25:41.982Z,19.00
2023-04-21T16:28:09.340Z,18.80
2023-04-21T16:30:36.264Z,18.70
2023-04-21T16:33:03.061Z,18.60
2023-04-21T16:35:29.815Z,18.50
2023-04-21T16:37:56.598Z,18.40
2023-04-21T16:40:24.114Z,18.50
2023-04-21T16:42:50.923Z,18.40
2023-04-21T16:45:17.589Z,18.50
2023-04-21T16:47:44.381Z,18.50
2023-04-21T16:50:11.360Z,18.50
2023-04-21T16:52:38.089Z,18.60
2023-04-21T16:55:05.015Z,18.50
2023-04-21T16:57:31.645Z,18.50
2023-04-21T16:59:59.156Z,18.40
2023-04-21T17:02:26.083Z,18.40
2023-04-21T17:04:52.820Z,18.40
2023-04-21T17:07:19.465Z,18.40
2023-04-21T17:09:46.149Z,18.40
2023-04-21T17:12:12.860Z,18.30
2023-04-21T17:14:40.048Z,18.30
2023-04-21T17:17:07.089Z,18.20
2023-04-21T17:19:33.836Z,18.20
2023-04-21T17:22:00.528Z,18.20
2023-04-21T17:24:29.570Z,18.20
2023-04-21T17:26:59.749Z,18.10
2023-04-21T17:29:26.992Z,18.00
2023-04-21T17:31:53.738Z,18.00
2023-04-21T17:34:20.452Z,17.90
2023-04-21T17:36:47.108Z,17.70
2023-04-21T17:39:14.088Z,17.70
2023-04-21T17:41:41.921Z,17.80
2023-04-21T17:44:08.569Z,17.80
2023-04-21T17:46:35.827Z,17.80
2023-04-21T17:49:02.559Z,17.70
2023-04-21T17:51:29.159Z,17.70
2023-04-21T17:53:55.778Z,17.70
2023-04-21T17:56:23.743Z,17.60
2023-04-21T17:58:50.698Z,17.60
2023-04-21T18:01:17.911Z,17.60
2023-04-21T18:03:44.765Z,17.40
2023-04-21T18:06:13.491Z,17.40
2023-04-21T18:08:40.176Z,17.40
2023-04-21T18:11:06.838Z,17.30
2023-04-21T18:13:33.989Z,17.20
2023-04-21T18:16:00.682Z,17.20
2023-04-21T18:18:27.643Z,17.30
2023-04-21T18:20:54.258Z,17.30
2023-04-21T18:23:21.248Z,17.10
2023-04-21T18:25:47.975Z,17.00
2023-04-21T18:28:14.629Z,17.00
2023-04-21T18:30:41.409Z,17.10
2023-04-21T18:33:09.102Z,17.10
2023-04-21T18:35:36.015Z,17.00
2023-04-21T18:38:02.651Z,16.90
2023-04-21T18:40:29.501Z,16.90
2023-04-21T18:42:56.400Z,16.90
2023-04-21T18:45:23.118Z,16.90
2023-04-21T18:47:49.771Z,16.80
2023-04-21T18:50:16.473Z,16.70
2023-04-21T18:52:43.346Z,16.70
2023-04-21T18:55:12.855Z,16.70
2023-04-21T18:57:39.454Z,16.60
2023-04-21T19:00:07.327Z,16.60
2023-04-21T19:02:34.224Z,16.60
2023-04-21T19:05:01.152Z,16.50
2023-04-21T19:07:28.194Z,16.40
2023-04-21T19:09:55.347Z,16.50
2023-04-21T19:12:21.968Z,16.40
2023-04-21T19:14:49.424Z,16.40
2023-04-21T19:17:16.440Z,16.40
2023-04-21T19:19:43.130Z,16.40
2023-04-21T19:22:09.733Z,16.40
2023-04-21T19:24:37.182Z,16.30
2023-04-21T19:27:06.145Z,16.30
2023-04-21T19:29:33.025Z,16.30
2023-04-21T19:31:59.767Z,16.20
2023-04-21T19:34:26.870Z,16.30
2023-04-21T19:36:53.680Z,16.30
2023-04-21T19:39:20.497Z,16.30
2023-04-21T19:41:47.116Z,16.30
2023-04-21T19:44:13.745Z,16.30
2023-04-21T19:46:42.618Z,16.20
2023-04-21T19:49:13.188Z,16.20
2023-04-21T19:51:41.121Z,16.10
2023-04-21T19:54:11.350Z,16.00
2023-04-21T19:56:39.092Z,16.00
2023-04-21T19:59:05.788Z,15.90
2023-04-21T20:01:32.976Z,15.80
2023-04-21T20:04:00.139Z,15.80
2023-04-21T20:06:27.166Z,15.90
2023-04-21T20:08:53.773Z,15.90
2023-04-21T20:11:21.073Z,16.00
2023-04-21T20:13:47.819Z,15.90
2023-04-21T20:16:14.501Z,16.00
2023-04-21T20:18:41.941Z,16.00
2023-04-21T20:21:08.548Z,16.00
2023-04-21T20:23:35.222Z,16.00
2023-04-21T20:26:01.827Z,15.90
2023-04-21T20:28:28.497Z,15.90
2023-04-21T20:30:56.852Z,15.90
2023-04-21T20:33:25.098Z,15.80
2023-04-21T20:35:52.428Z,15.80
2023-04-21T20:38:19.150Z,15.70
2023-04-21T20:40:46.375Z,15.70
2023-04-21T20:43:13.655Z,15.70
2023-04-21T20:45:41.297Z,15.70
2023-04-21T20:48:08.030Z,15.60
2023-04-21T20:50:34.644Z,15.60
2023-04-21T20:53:02.086Z,15.50
2023-04-21T20:55:28.695Z,15.50
2023-04-21T20:57:55.301Z,15.50
2023-04-21T21:00:21.964Z,15.50
2023-04-21T21:02:48.732Z,15.50
2023-04-21T21:05:15.506Z,15.50
2023-04-21T21:07:42.144Z,15.50
2023-04-21T21:10:11.209Z,15.60
2023-04-21T21:12:37.843Z,15.50
2023-04-21T21:15:05.388Z,15.50
2023-04-21T21:17:32.103Z,15.50
2023-04-21T21:19:58.733Z,15.40
2023-04-21T21:22:25.402Z,15.30
2023-04-21T21:24:52.034Z,15.30
2023-04-21T21:27:18.694Z,15.20
2023-04-21T21:29:45.497Z,15.20
2023-04-21T21:32:12.170Z,15.10
2023-04-21T21:34:38.841Z,15.00
2023-04-21T21:37:05.502Z,14.80
2023-04-21T21:39:32.133Z,14.70
2023-04-21T21:41:58.728Z,14.70
2023-04-21T21:44:25.429Z,14.60
2023-04-21T21:46:52.191Z,14.60
2023-04-21T21:49:18.862Z,14.50
2023-04-21T21:51:45.485Z,14.50
2023-04-21T21:54:12.088Z,14.50
2023-04-21T21:56:38.681Z,14.50
2023-04-21T21:59:06.249Z,14.50
2023-04-21T22:01:32.969Z,14.50
2023-04-21T22:03:59.642Z,14.40
2023-04-21T22:06:26.925Z,14.50
2023-04-21T22:08:53.554Z,14.50
2023-04-21T22:11:20.694Z,14.50
2023-04-21T22:13:47.318Z,14.60
2023-04-21T22:16:13.954Z,14.60
2023-04-21T22:18:40.598Z,14.60
2023-04-21T22:21:07.269Z,14.50
2023-04-21T22:23:33.868Z,14.50
2023-04-21T22:26:00.493Z,14.50
2023-04-21T22:28:27.087Z,14.60
2023-04-21T22:30:53.827Z,14.70
2023-04-21T22:33:20.482Z,14.70
2023-04-21T22:35:47.101Z,14.60
2023-04-21T22:38:13.708Z,14.50
2023-04-21T22:40:40.347Z,14.50
2023-04-21T22:43:06.975Z,14.50
2023-04-21T22:45:34.701Z,14.50
2023-04-21T22:48:01.394Z,14.40
2023-04-21T22:50:28.153Z,14.40
2023-04-21T22:52:54.788Z,14.30
2023-04-21T22:55:21.391Z,14.20
2023-04-21T22:57:48.113Z,14.10
2023-04-21T23:00:15.319Z,14.00
2023-04-21T23:02:42.166Z,13.90
2023-04-21T23:05:09.266Z,13.70
2023-04-21T23:07:36.618Z,13.60
2023-04-21T23:10:03.696Z,13.40
2023-04-21T23:12:30.319Z,13.40
2023-04-21T23:14:56.925Z,13.40
2023-04-21T23:17:23.631Z,13.30
2023-04-21T23:19:50.293Z,13.30
2023-04-21T23:22:16.905Z,13.40
2023-04-21T23:24:43.499Z,13.30
2023-04-21T23:27:10.103Z,13.30
2023-04-21T23:29:37.046Z,13.20
2023-04-21T23:32:03.846Z,13.20
2023-04-21T23:34:30.500Z,13.10
2023-04-21T23:36:57.174Z,13.10
2023-04-21T23:39:23.778Z,13.10
2023-04-21T23:41:50.475Z,13.10
2023-04-21T23:44:17.066Z,13.00
2023-04-21T23:46:43.679Z,12.90
2023-04-21T23:49:10.754Z,12.90
2023-04-21T23:51:37.469Z,12.90
2023-04-21T23:54:04.075Z,12.80
2023-04-21T23:56:30.849Z,12.80
2023-04-21T23:58:57.448Z,12.70
